Time;durP1;ratioP1;P1;durP2;ratioP2;P2;SDS_P1;SDS_P2;PMS_P1;PMS_P2;Temp;Humidity;BMP_temperature;BMP_pressure;BME280_temperature;BME280_humidity;BME280_pressure;Samples;Min_cycle;Max_cycle;Signal;HPM_P1;HPM_P2
2021/08/23 00:04:10;;;;;;;4.90;3.55;;;20.90;75.10;;;;;;10331557;28;20483;-47
2021/08/23 00:09:11;;;;;;;3.22;2.92;;;20.90;75.10;;;;;;10332154;28;20034;-49
2021/08/23 00:14:12;;;;;;;3.92;3.53;;;20.90;75.10;;;;;;10332055;28;20113;-47
2021/08/23 00:19:12;;;;;;;3.72;3.33;;;20.90;75.40;;;;;;10334638;28;20605;-48
2021/08/23 00:24:23;;;;;;;3.88;3.47;;;20.90;75.10;;;;;;10332505;28;20015;-47
2021/08/23 00:29:24;;;;;;;4.13;3.72;;;20.90;75.20;;;;;;10331912;28;20057;-48
2021/08/23 00:34:25;;;;;;;3.83;3.42;;;20.90;75.10;;;;;;10331686;28;20030;-47
2021/08/23 00:39:26;;;;;;;4.63;3.80;;;20.90;75.10;;;;;;10332126;28;20416;-47
2021/08/23 00:44:27;;;;;;;4.15;3.75;;;20.90;75.10;;;;;;10331397;28;20052;-48
2021/08/23 00:49:32;;;;;;;4.22;3.70;;;20.90;75.00;;;;;;10330638;28;20117;-48
2021/08/23 00:54:34;;;;;;;4.15;3.35;;;20.90;75.10;;;;;;10331239;28;20077;-47
2021/08/23 00:59:40;;;;;;;4.38;3.75;;;20.90;75.10;;;;;;10331389;28;20038;-47
2021/08/23 01:04:57;;;;;;;4.55;3.63;;;20.90;75.10;;;;;;10331310;28;20054;-47
2021/08/23 01:10:04;;;;;;;4.20;3.70;;;20.80;75.10;;;;;;10330143;28;20031;-47
2021/08/23 01:15:05;;;;;;;4.65;4.07;;;20.80;75.10;;;;;;10333232;28;20038;-47
2021/08/23 01:20:08;;;;;;;4.97;3.58;;;20.80;75.10;;;;;;10340935;28;20026;-47
2021/08/23 01:25:19;;;;;;;4.25;3.85;;;20.80;75.10;;;;;;10336705;28;20487;-47
2021/08/23 01:30:20;;;;;;;4.30;3.58;;;20.80;75.00;;;;;;10337516;28;20045;-47
2021/08/23 01:35:22;;;;;;;4.03;3.60;;;20.80;75.00;;;;;;10376960;28;20391;-47
2021/08/23 01:40:22;;;;;;;4.32;3.92;;;20.80;75.10;;;;;;10377920;28;20046;-47
2021/08/23 01:45:23;;;;;;;3.88;3.47;;;20.80;75.10;;;;;;10377842;28;20160;-48
2021/08/23 01:50:24;;;;;;;4.63;4.22;;;20.80;75.10;;;;;;10378242;28;20069;-48
2021/08/23 01:55:24;;;;;;;4.65;4.07;;;20.80;75.20;;;;;;10377370;28;20193;-48
2021/08/23 02:00:25;;;;;;;4.13;3.72;;;20.80;75.70;;;;;;10377383;28;20025;-48
2021/08/23 02:05:28;;;;;;;3.72;3.40;;;20.80;75.20;;;;;;10377671;28;20122;-48
2021/08/23 02:10:28;;;;;;;4.60;4.10;;;20.80;75.10;;;;;;10377004;28;20505;-48
2021/08/23 02:15:29;;;;;;;5.40;4.63;;;20.80;75.10;;;;;;10376627;28;20032;-48
2021/08/23 02:20:30;;;;;;;5.05;4.55;;;20.80;75.20;;;;;;10346071;28;20014;-48
2021/08/23 02:25:31;;;;;;;4.90;4.25;;;20.80;75.10;;;;;;10335384;28;20034;-47
2021/08/23 02:30:32;;;;;;;5.05;4.60;;;20.80;75.10;;;;;;10335647;28;20035;-47
2021/08/23 02:35:32;;;;;;;5.75;4.20;;;20.80;75.10;;;;;;10335264;28;20085;-47
2021/08/23 02:40:34;;;;;;;5.82;4.32;;;20.80;75.10;;;;;;10335126;28;20085;-48
2021/08/23 02:45:35;;;;;;;4.47;4.07;;;20.80;75.10;;;;;;10335137;28;20026;-48
2021/08/23 02:50:36;;;;;;;5.85;5.22;;;20.80;75.10;;;;;;10334997;28;20374;-47
2021/08/23 02:55:36;;;;;;;4.45;4.05;;;20.80;75.00;;;;;;10334450;28;20041;-48
2021/08/23 03:00:37;;;;;;;5.10;4.60;;;20.80;75.00;;;;;;10359355;28;20436;-47
2021/08/23 03:05:38;;;;;;;4.90;4.43;;;20.80;75.10;;;;;;10334380;28;20098;-48
2021/08/23 03:10:38;;;;;;;6.15;4.80;;;20.80;75.10;;;;;;10333854;28;20113;-48
2021/08/23 03:15:39;;;;;;;6.68;4.63;;;20.80;75.10;;;;;;10333824;28;20109;-48
2021/08/23 03:20:39;;;;;;;4.75;4.32;;;20.80;75.20;;;;;;10335674;28;20022;-47
2021/08/23 03:25:40;;;;;;;5.25;4.75;;;20.80;75.10;;;;;;10345405;28;20112;-49
2021/08/23 03:30:41;;;;;;;5.05;4.55;;;20.80;75.20;;;;;;10333397;28;20118;-48
2021/08/23 03:35:42;;;;;;;5.57;5.07;;;20.80;75.30;;;;;;10333060;28;20421;-48
2021/08/23 03:40:42;;;;;;;5.10;4.10;;;20.80;75.10;;;;;;10331920;28;20384;-47
2021/08/23 03:45:43;;;;;;;4.95;4.30;;;20.80;75.10;;;;;;10333107;28;20097;-47
2021/08/23 03:50:44;;;;;;;5.43;4.93;;;20.70;75.00;;;;;;10333167;28;20030;-47
2021/08/23 03:55:45;;;;;;;5.78;4.45;;;20.70;75.70;;;;;;10332715;28;20463;-48
2021/08/23 04:00:45;;;;;;;5.00;4.30;;;20.70;75.00;;;;;;10332423;28;20034;-47
2021/08/23 04:05:46;;;;;;;5.45;4.90;;;20.70;75.00;;;;;;10332208;28;20109;-47
2021/08/23 04:10:47;;;;;;;5.47;4.97;;;20.70;75.10;;;;;;10332253;28;20102;-49
2021/08/23 04:15:48;;;;;;;5.75;5.05;;;20.70;75.10;;;;;;10332023;28;20114;-47
2021/08/23 04:20:49;;;;;;;5.70;5.13;;;20.70;75.10;;;;;;10334804;28;20092;-48
2021/08/23 04:25:49;;;;;;;5.53;4.93;;;20.70;75.00;;;;;;10332103;28;20115;-48
2021/08/23 04:30:50;;;;;;;5.78;5.18;;;20.70;75.00;;;;;;10332386;28;20109;-49
2021/08/23 04:35:51;;;;;;;6.22;5.50;;;20.70;75.00;;;;;;10331712;28;20034;-47
2021/08/23 04:40:51;;;;;;;5.93;5.32;;;20.70;75.10;;;;;;10331959;28;20046;-47
2021/08/23 04:45:52;;;;;;;5.97;5.35;;;20.70;75.00;;;;;;10330952;28;20026;-47
2021/08/23 04:50:53;;;;;;;6.07;5.45;;;20.70;75.00;;;;;;10333117;28;20112;-48
2021/08/23 04:55:53;;;;;;;6.72;5.28;;;20.70;75.10;;;;;;10336827;28;20398;-49
2021/08/23 05:00:54;;;;;;;6.10;5.50;;;20.70;75.00;;;;;;10339631;28;20553;-47
2021/08/23 05:05:55;;;;;;;5.95;5.35;;;20.70;74.80;;;;;;10339751;28;20069;-47
2021/08/23 05:10:55;;;;;;;6.10;5.47;;;20.70;74.80;;;;;;10339360;28;20057;-48
2021/08/23 05:15:57;;;;;;;6.55;5.70;;;20.70;74.90;;;;;;10339313;28;20089;-48
2021/08/23 05:21:03;;;;;;;6.00;5.15;;;20.70;74.90;;;;;;10341810;28;20046;-48
2021/08/23 05:26:08;;;;;;;6.20;5.60;;;20.70;74.90;;;;;;10338954;28;20505;-47
2021/08/23 05:31:09;;;;;;;6.05;5.07;;;20.70;74.90;;;;;;10373094;28;20577;-49
2021/08/23 05:36:09;;;;;;;6.05;5.07;;;20.70;75.00;;;;;;10378638;28;20097;-48
2021/08/23 05:41:10;;;;;;;5.78;5.28;;;20.70;74.80;;;;;;10378214;28;20048;-48
2021/08/23 05:46:15;;;;;;;5.88;5.22;;;20.70;74.90;;;;;;10351096;28;20025;-47
2021/08/23 05:51:17;;;;;;;6.00;5.18;;;20.70;74.80;;;;;;10364004;28;20038;-48
2021/08/23 05:56:18;;;;;;;6.25;5.45;;;20.70;74.70;;;;;;10377982;28;20022;-48
2021/08/23 06:01:18;;;;;;;7.65;5.60;;;20.70;74.70;;;;;;10345177;28;20049;-47
2021/08/23 06:06:19;;;;;;;6.95;4.82;;;20.70;74.80;;;;;;10335946;28;20120;-47
2021/08/23 06:11:19;;;;;;;5.65;5.15;;;20.70;74.80;;;;;;10336651;28;20444;-48
2021/08/23 06:16:20;;;;;;;5.57;4.97;;;20.70;74.80;;;;;;10337189;28;20069;-47
2021/08/23 06:21:21;;;;;;;5.65;5.05;;;20.70;74.70;;;;;;10338603;28;20113;-46
2021/08/23 06:26:21;;;;;;;5.95;5.05;;;20.70;74.80;;;;;;10336484;28;20169;-48
2021/08/23 06:31:23;;;;;;;5.90;5.30;;;20.70;74.90;;;;;;10336245;28;20117;-47
2021/08/23 06:36:24;;;;;;;6.03;5.43;;;20.70;74.80;;;;;;10335922;28;20030;-49
2021/08/23 06:41:26;;;;;;;6.30;5.63;;;20.70;74.90;;;;;;10335698;28;20562;-48
2021/08/23 06:46:26;;;;;;;6.43;5.70;;;20.70;74.70;;;;;;10335737;28;20443;-47
2021/08/23 06:51:27;;;;;;;6.20;5.60;;;20.70;74.70;;;;;;10335541;28;20038;-48
2021/08/23 06:56:28;;;;;;;5.30;4.80;;;20.70;74.60;;;;;;10333919;28;20042;-47
2021/08/23 07:01:29;;;;;;;5.68;4.78;;;20.70;74.70;;;;;;10335146;28;20038;-47
2021/08/23 07:06:29;;;;;;;5.68;5.10;;;20.70;74.60;;;;;;10334685;28;20113;-48
2021/08/23 07:11:30;;;;;;;4.95;4.38;;;20.70;74.60;;;;;;10334482;28;20034;-48
2021/08/23 07:16:31;;;;;;;6.18;4.88;;;20.70;74.40;;;;;;10333055;28;20060;-50
2021/08/23 07:21:31;;;;;;;6.05;5.10;;;20.70;74.40;;;;;;10358422;28;20025;-47
2021/08/23 07:26:32;;;;;;;6.43;5.30;;;20.70;74.40;;;;;;10361307;28;20073;-48
2021/08/23 07:31:33;;;;;;;5.97;4.70;;;20.70;74.40;;;;;;10374393;28;20034;-47
2021/08/23 07:36:34;;;;;;;4.88;4.13;;;20.70;74.40;;;;;;10372671;28;20394;-48
2021/08/23 07:41:35;;;;;;;6.90;4.65;;;20.70;74.40;;;;;;10333347;28;20121;-47
2021/08/23 07:46:36;;;;;;;6.70;4.60;;;20.70;74.40;;;;;;10333768;28;20066;-49
2021/08/23 07:51:37;;;;;;;5.60;4.78;;;20.70;74.50;;;;;;10333195;28;20044;-48
2021/08/23 07:56:37;;;;;;;4.97;4.47;;;20.70;74.50;;;;;;10333025;28;20105;-47
2021/08/23 08:01:38;;;;;;;6.07;4.78;;;20.70;74.50;;;;;;10333120;28;20483;-47
2021/08/23 08:06:39;;;;;;;5.20;4.35;;;20.70;74.50;;;;;;10332974;28;20065;-48
2021/08/23 08:11:39;;;;;;;5.03;4.20;;;20.70;74.50;;;;;;10344721;28;20054;-47
2021/08/23 08:16:40;;;;;;;5.22;4.55;;;20.70;74.50;;;;;;10332417;28;20026;-47
2021/08/23 08:21:41;;;;;;;4.97;4.45;;;20.70;74.60;;;;;;10336105;28;20109;-46
2021/08/23 08:26:42;;;;;;;4.60;4.05;;;20.70;74.40;;;;;;10338980;28;20030;-47
2021/08/23 08:31:42;;;;;;;5.60;4.45;;;20.70;74.70;;;;;;10353047;28;20036;-47
2021/08/23 08:36:44;;;;;;;5.75;4.43;;;20.70;74.60;;;;;;10351744;28;20113;-48
2021/08/23 08:41:45;;;;;;;4.95;4.43;;;20.70;74.60;;;;;;10340185;28;20045;-48
2021/08/23 08:46:48;;;;;;;5.30;4.50;;;20.70;74.60;;;;;;10344560;28;20109;-49
2021/08/23 08:51:49;;;;;;;4.65;3.75;;;20.70;74.60;;;;;;10339000;28;20026;-50
2021/08/23 08:56:50;;;;;;;4.80;3.85;;;20.70;74.60;;;;;;10338742;28;20447;-52
2021/08/23 09:01:51;;;;;;;4.85;4.28;;;20.70;74.70;;;;;;10339380;28;20172;-48
2021/08/23 09:06:55;;;;;;;4.38;3.72;;;20.70;74.70;;;;;;10339394;28;20113;-48
2021/08/23 09:12:06;;;;;;;4.93;4.18;;;20.70;74.70;;;;;;10339144;28;20038;-48
2021/08/23 09:17:09;;;;;;;5.03;3.97;;;20.70;75.00;;;;;;10339307;28;20033;-49
2021/08/23 09:22:16;;;;;;;4.57;3.40;;;20.70;74.80;;;;;;10365483;28;20030;-47
2021/08/23 09:27:16;;;;;;;4.93;3.92;;;20.70;74.80;;;;;;10366170;28;20025;-47
2021/08/23 09:32:19;;;;;;;4.65;3.85;;;20.80;74.90;;;;;;10378775;28;20025;-48
2021/08/23 09:37:25;;;;;;;4.13;3.20;;;20.70;74.80;;;;;;10364042;28;20025;-48
2021/08/23 09:42:26;;;;;;;4.20;2.90;;;20.80;74.90;;;;;;10378805;28;20042;-49
2021/08/23 09:47:30;;;;;;;3.83;3.40;;;20.80;74.90;;;;;;10378482;28;20057;-49
2021/08/23 09:52:36;;;;;;;4.53;3.33;;;20.80;74.80;;;;;;10377045;28;20050;-48
2021/08/23 09:57:38;;;;;;;4.18;3.20;;;20.80;74.80;;;;;;10377850;28;20038;-48
2021/08/23 10:02:48;;;;;;;3.63;3.10;;;20.90;74.90;;;;;;10377614;28;20030;-49
2021/08/23 10:07:49;;;;;;;5.55;3.78;;;20.80;74.70;;;;;;10377679;28;20033;-49
2021/08/23 10:12:50;;;;;;;5.70;3.80;;;20.80;74.70;;;;;;10376312;28;20029;-49
2021/08/23 10:17:53;;;;;;;4.20;3.67;;;20.80;74.70;;;;;;10368392;28;20026;-49
2021/08/23 10:22:55;;;;;;;4.88;3.60;;;20.90;74.90;;;;;;10335505;28;20129;-48
2021/08/23 10:28:05;;;;;;;3.95;3.17;;;20.90;74.80;;;;;;10335106;28;20360;-48
2021/08/23 10:33:10;;;;;;;4.32;3.10;;;20.90;74.70;;;;;;10336612;28;20033;-48
2021/08/23 10:38:17;;;;;;;3.72;3.30;;;20.90;74.70;;;;;;10335873;28;20534;-49
2021/08/23 10:43:23;;;;;;;3.58;3.03;;;20.90;74.70;;;;;;10335896;28;20077;-49
2021/08/23 10:48:24;;;;;;;4.10;3.05;;;20.90;74.90;;;;;;10335000;28;20034;-51
2021/08/23 10:53:37;;;;;;;3.55;3.03;;;20.90;74.70;;;;;;10334121;28;20018;-49
2021/08/23 10:58:38;;;;;;;3.72;3.10;;;20.90;74.90;;;;;;10335304;28;20049;-50
2021/08/23 11:03:38;;;;;;;3.05;2.53;;;21.00;74.80;;;;;;10333609;28;20493;-49
2021/08/23 11:08:42;;;;;;;3.45;3.00;;;21.00;74.70;;;;;;10333597;28;20412;-49
2021/08/23 11:13:43;;;;;;;5.22;2.78;;;21.00;74.60;;;;;;10334658;28;20022;-49
2021/08/23 11:18:45;;;;;;;3.20;2.53;;;21.00;74.70;;;;;;10336484;28;20035;-49
2021/08/23 11:23:46;;;;;;;3.53;2.92;;;21.00;74.50;;;;;;10334306;28;20030;-49
2021/08/23 11:28:47;;;;;;;3.28;2.47;;;21.10;74.50;;;;;;10362428;28;20121;-49
2021/08/23 11:33:47;;;;;;;3.15;2.78;;;21.20;74.50;;;;;;10374230;28;20394;-48
2021/08/23 11:38:48;;;;;;;3.90;2.60;;;21.20;74.30;;;;;;10374107;28;20406;-49
2021/08/23 11:43:49;;;;;;;3.28;2.75;;;21.30;74.30;;;;;;10374023;28;20490;-49
2021/08/23 11:48:54;;;;;;;3.00;2.50;;;21.30;74.20;;;;;;10374015;28;20172;-50
2021/08/23 11:53:56;;;;;;;3.35;2.38;;;21.20;74.20;;;;;;10373661;28;20018;-49
2021/08/23 11:58:56;;;;;;;3.88;2.47;;;21.30;74.20;;;;;;10372813;28;20037;-49
2021/08/23 12:03:58;;;;;;;3.55;2.67;;;21.30;74.10;;;;;;10373415;28;20065;-49
2021/08/23 12:09:00;;;;;;;5.07;2.63;;;21.20;74.00;;;;;;10373745;28;20482;-49
2021/08/23 12:14:01;;;;;;;2.95;2.60;;;21.30;74.10;;;;;;10373092;28;20389;-49
2021/08/23 12:19:10;;;;;;;2.90;2.42;;;21.30;74.30;;;;;;10354733;28;20037;-49
2021/08/23 12:24:22;;;;;;;3.92;2.80;;;21.40;74.10;;;;;;10331642;28;20061;-54
2021/08/23 12:29:37;;;;;;;3.72;2.78;;;21.30;73.90;;;;;;10331178;28;20117;-49
2021/08/23 12:34:47;;;;;;;2.85;2.38;;;21.30;73.90;;;;;;10332616;28;20061;-51
2021/08/23 12:39:50;;;;;;;4.15;2.70;;;21.30;74.00;;;;;;10332109;28;20022;-51
2021/08/23 12:44:51;;;;;;;3.65;2.50;;;21.30;74.00;;;;;;10331952;28;20125;-51
2021/08/23 12:49:51;;;;;;;3.15;2.47;;;21.30;74.10;;;;;;10332141;28;20088;-50
2021/08/23 12:54:52;;;;;;;3.17;2.33;;;21.20;74.00;;;;;;10331858;28;20110;-52
2021/08/23 12:59:53;;;;;;;2.47;1.95;;;21.30;74.20;;;;;;10332204;28;20027;-52
2021/08/23 13:04:53;;;;;;;3.35;2.28;;;21.30;74.00;;;;;;10330746;28;20495;-53
2021/08/23 13:09:54;;;;;;;3.97;2.65;;;21.30;74.40;;;;;;10333212;28;20041;-50
2021/08/23 13:14:55;;;;;;;3.47;2.30;;;21.30;74.00;;;;;;10339182;28;20054;-51
2021/08/23 13:19:55;;;;;;;2.78;2.47;;;21.30;74.00;;;;;;10341273;28;20034;-52
2021/08/23 13:24:56;;;;;;;3.35;2.70;;;21.30;74.00;;;;;;10338875;28;20066;-49
2021/08/23 13:29:57;;;;;;;2.75;2.20;;;21.40;74.10;;;;;;10378015;28;20435;-51
2021/08/23 13:34:57;;;;;;;3.38;2.08;;;21.30;73.80;;;;;;10379122;28;20550;-51
2021/08/23 13:39:58;;;;;;;4.63;2.45;;;21.40;73.80;;;;;;10364246;28;20183;-52
2021/08/23 13:44:59;;;;;;;3.42;2.47;;;21.40;73.70;;;;;;10378306;28;20081;-49
2021/08/23 13:50:00;;;;;;;3.75;2.40;;;21.40;73.70;;;;;;10377190;28;20088;-51
2021/08/23 13:55:00;;;;;;;2.65;2.22;;;21.40;73.60;;;;;;10378367;28;20053;-50
2021/08/23 14:00:03;;;;;;;2.78;2.28;;;21.40;73.60;;;;;;10376721;28;20057;-47
2021/08/23 14:05:04;;;;;;;2.63;2.10;;;21.40;73.70;;;;;;10377929;28;20034;-52
2021/08/23 14:10:07;;;;;;;2.65;2.10;;;21.40;73.70;;;;;;10377650;28;20438;-51
2021/08/23 14:15:13;;;;;;;3.25;2.38;;;21.40;73.70;;;;;;10377567;28;20029;-52
2021/08/23 14:20:15;;;;;;;3.20;2.15;;;21.40;73.60;;;;;;10349302;28;20038;-49
2021/08/23 14:25:16;;;;;;;2.72;2.15;;;21.40;73.60;;;;;;10335395;28;20054;-50
2021/08/23 14:30:17;;;;;;;2.72;1.95;;;21.40;73.60;;;;;;10336550;28;20480;-52
2021/08/23 14:35:18;;;;;;;2.80;1.80;;;21.40;73.50;;;;;;10336192;28;20145;-52
2021/08/23 14:40:19;;;;;;;2.30;1.75;;;21.40;73.50;;;;;;10335832;28;20061;-52
2021/08/23 14:45:21;;;;;;;2.42;1.90;;;21.40;73.60;;;;;;10335955;28;20034;-50
2021/08/23 14:50:22;;;;;;;2.55;2.30;;;21.40;73.50;;;;;;10335540;28;20485;-52
2021/08/23 14:55:23;;;;;;;2.58;1.90;;;21.40;73.20;;;;;;10335947;28;20125;-51
2021/08/23 15:00:24;;;;;;;4.70;2.35;;;21.40;73.40;;;;;;10335225;28;20118;-48
2021/08/23 15:05:25;;;;;;;2.72;2.22;;;21.40;73.30;;;;;;10334989;28;20085;-53
2021/08/23 15:10:26;;;;;;;3.10;2.30;;;21.40;73.10;;;;;;10333572;28;20038;-51
2021/08/23 15:15:26;;;;;;;2.97;2.20;;;21.30;73.20;;;;;;10334257;28;20467;-53
2021/08/23 15:20:27;;;;;;;2.58;1.80;;;21.30;73.10;;;;;;10336640;28;20101;-50
2021/08/23 15:25:28;;;;;;;2.83;2.00;;;21.40;72.80;;;;;;10334310;28;20381;-52
2021/08/23 15:30:28;;;;;;;3.08;2.00;;;21.30;72.80;;;;;;10334183;28;20117;-53
2021/08/23 15:35:29;;;;;;;2.90;1.77;;;21.40;73.00;;;;;;10333945;28;20125;-52
2021/08/23 15:40:30;;;;;;;2.85;2.10;;;21.40;72.90;;;;;;10333397;28;20414;-53
2021/08/23 15:45:31;;;;;;;2.53;1.85;;;21.30;72.80;;;;;;10332374;28;20032;-52
2021/08/23 15:50:32;;;;;;;3.00;2.28;;;21.30;72.50;;;;;;10332336;28;20030;-52
2021/08/23 15:55:32;;;;;;;2.25;2.05;;;21.30;73.30;;;;;;10333170;28;20034;-51
2021/08/23 16:00:33;;;;;;;2.97;1.90;;;21.30;72.20;;;;;;10333225;28;20026;-50
2021/08/23 16:05:34;;;;;;;3.75;1.98;;;21.40;72.50;;;;;;10332921;28;20038;-52
2021/08/23 16:10:36;;;;;;;2.55;1.77;;;21.30;72.30;;;;;;10331892;28;20027;-53
2021/08/23 16:15:36;;;;;;;2.25;1.63;;;21.30;72.50;;;;;;10359099;28;20038;-52
2021/08/23 16:20:38;;;;;;;2.58;1.70;;;21.30;72.30;;;;;;10342005;28;20030;-52
2021/08/23 16:25:39;;;;;;;3.08;1.88;;;21.30;72.10;;;;;;10332631;28;20125;-52
2021/08/23 16:30:41;;;;;;;1.75;1.40;;;21.30;72.00;;;;;;10332483;28;20129;-51
2021/08/23 16:35:42;;;;;;;2.85;2.15;;;21.30;72.10;;;;;;10332557;28;20054;-49
2021/08/23 16:40:43;;;;;;;2.03;1.50;;;21.30;72.10;;;;;;10331029;28;20439;-50
2021/08/23 16:45:43;;;;;;;2.45;2.03;;;21.30;72.20;;;;;;10335104;28;20081;-50
2021/08/23 16:50:44;;;;;;;2.47;1.80;;;21.30;72.40;;;;;;10340212;28;20475;-50
2021/08/23 16:55:45;;;;;;;3.38;2.20;;;21.30;72.20;;;;;;10339913;28;20498;-52
2021/08/23 17:00:45;;;;;;;3.05;1.83;;;21.30;72.20;;;;;;10338374;28;20034;-51
2021/08/23 17:05:46;;;;;;;1.85;1.40;;;21.30;72.40;;;;;;10339524;28;20027;-51
2021/08/23 17:10:47;;;;;;;2.47;1.90;;;21.30;72.30;;;;;;10339604;28;20392;-50
2021/08/23 17:15:48;;;;;;;2.30;1.90;;;21.30;72.40;;;;;;10339314;28;20174;-52
2021/08/23 17:20:51;;;;;;;3.25;1.95;;;21.30;72.40;;;;;;10342401;28;20077;-50
2021/08/23 17:25:52;;;;;;;2.13;1.77;;;21.30;72.50;;;;;;10338764;28;20030;-53
2021/08/23 17:30:53;;;;;;;2.70;1.70;;;21.30;72.60;;;;;;10338768;28;20034;-49
2021/08/23 17:35:54;;;;;;;2.20;1.90;;;21.30;72.60;;;;;;10338393;28;20129;-52
2021/08/23 17:40:54;;;;;;;2.95;2.13;;;21.30;72.60;;;;;;10338457;28;20086;-51
2021/08/23 17:45:55;;;;;;;2.40;1.80;;;21.30;72.50;;;;;;10338218;28;20034;-52
2021/08/23 17:50:56;;;;;;;2.47;1.88;;;21.30;72.40;;;;;;10337700;28;20053;-52
2021/08/23 17:55:57;;;;;;;3.22;2.00;;;21.30;72.40;;;;;;10336109;28;20391;-52
2021/08/23 18:00:57;;;;;;;5.05;2.10;;;21.30;72.40;;;;;;10337489;28;20038;-52
2021/08/23 18:05:58;;;;;;;2.55;1.85;;;21.30;72.50;;;;;;10337561;28;20034;-52
2021/08/23 18:10:59;;;;;;;1.77;1.60;;;21.30;72.50;;;;;;10337647;28;20491;-52
2021/08/23 18:16:00;;;;;;;2.15;1.65;;;21.30;72.40;;;;;;10336848;28;20030;-50
2021/08/23 18:21:00;;;;;;;2.72;1.80;;;21.30;72.40;;;;;;10339186;28;20061;-52
2021/08/23 18:26:01;;;;;;;2.83;2.00;;;21.30;72.40;;;;;;10336503;28;20066;-51
2021/08/23 18:31:03;;;;;;;2.72;1.83;;;21.30;72.30;;;;;;10336257;28;20058;-52
2021/08/23 18:36:04;;;;;;;2.08;1.63;;;21.30;72.30;;;;;;10336173;28;20038;-52
2021/08/23 18:41:04;;;;;;;2.95;1.90;;;21.30;72.30;;;;;;10336017;28;20483;-50
2021/08/23 18:46:07;;;;;;;2.75;2.03;;;21.30;72.40;;;;;;10335812;28;20022;-52
2021/08/23 18:51:07;;;;;;;1.90;1.60;;;21.30;72.30;;;;;;10335437;28;20049;-49
2021/08/23 18:56:10;;;;;;;3.25;2.10;;;21.30;72.40;;;;;;10335375;28;20057;-50
2021/08/23 19:01:10;;;;;;;2.22;1.70;;;21.30;72.40;;;;;;10335229;28;20073;-53
2021/08/23 19:06:11;;;;;;;2.33;1.63;;;21.30;72.40;;;;;;10334939;28;20065;-51
2021/08/23 19:11:12;;;;;;;2.90;1.88;;;21.30;72.40;;;;;;10334685;28;20113;-53
2021/08/23 19:16:12;;;;;;;2.22;1.80;;;21.30;72.50;;;;;;10334561;28;20054;-52
2021/08/23 19:21:13;;;;;;;2.53;1.75;;;21.30;72.40;;;;;;10336593;28;20027;-49
2021/08/23 19:26:15;;;;;;;1.77;1.38;;;21.30;72.40;;;;;;10333775;28;20061;-50
2021/08/23 19:31:16;;;;;;;2.28;1.42;;;21.30;72.40;;;;;;10333462;28;20053;-48
2021/08/23 19:36:17;;;;;;;2.13;1.90;;;21.30;72.50;;;;;;10330955;28;20052;-52
2021/08/23 19:41:17;;;;;;;1.48;1.27;;;21.30;72.40;;;;;;10333012;28;20133;-51
2021/08/23 19:46:18;;;;;;;4.07;1.65;;;21.30;72.60;;;;;;10333009;28;20561;-52
2021/08/23 19:51:19;;;;;;;2.42;1.83;;;21.30;72.60;;;;;;10359075;28;20025;-51
2021/08/23 19:56:20;;;;;;;2.85;1.70;;;21.30;72.60;;;;;;10373214;28;20037;-52
2021/08/23 20:01:20;;;;;;;1.90;1.40;;;21.20;72.60;;;;;;10373095;28;20018;-52
2021/08/23 20:06:21;;;;;;;1.77;1.48;;;21.20;72.50;;;;;;10373007;28;20044;-50
2021/08/23 20:11:21;;;;;;;2.08;1.70;;;21.30;72.70;;;;;;10372915;28;20065;-51
2021/08/23 20:16:22;;;;;;;2.00;1.67;;;21.20;72.60;;;;;;10372741;28;20117;-50
2021/08/23 20:21:23;;;;;;;2.08;1.52;;;21.20;72.40;;;;;;10334419;28;20065;-51
2021/08/23 20:26:25;;;;;;;2.53;1.77;;;21.20;72.50;;;;;;10330550;28;20040;-52
2021/08/23 20:31:25;;;;;;;1.95;1.60;;;21.30;72.50;;;;;;10331799;28;20450;-51
2021/08/23 20:36:29;;;;;;;2.17;1.75;;;21.20;72.30;;;;;;10331827;28;20118;-52
2021/08/23 20:41:34;;;;;;;2.90;2.10;;;21.20;72.10;;;;;;10331817;28;20430;-50
2021/08/23 20:46:40;;;;;;;2.92;1.85;;;21.20;72.00;;;;;;10331717;28;20066;-51
2021/08/23 20:51:41;;;;;;;2.33;1.60;;;21.20;72.10;;;;;;10330524;28;20034;-50
2021/08/23 20:56:43;;;;;;;2.63;1.77;;;21.20;72.10;;;;;;10330240;28;20034;-52
2021/08/23 21:01:43;;;;;;;2.63;1.73;;;21.20;72.10;;;;;;10331387;28;20058;-51
2021/08/23 21:06:45;;;;;;;2.85;1.80;;;21.20;71.90;;;;;;10331830;28;20551;-52
2021/08/23 21:11:46;;;;;;;2.15;1.65;;;21.20;71.80;;;;;;10331346;28;20026;-52
2021/08/23 21:16:47;;;;;;;2.50;1.70;;;21.20;71.70;;;;;;10330936;28;20035;-50
2021/08/23 21:21:48;;;;;;;3.03;2.42;;;21.20;71.70;;;;;;10333719;28;20378;-50
2021/08/23 21:26:48;;;;;;;2.97;1.65;;;21.20;71.70;;;;;;10330746;28;20026;-53
2021/08/23 21:31:49;;;;;;;3.50;1.80;;;21.20;71.70;;;;;;10333803;28;20053;-51
2021/08/23 21:36:50;;;;;;;2.28;1.70;;;21.20;71.70;;;;;;10338113;28;20031;-49
2021/08/23 21:41:51;;;;;;;2.25;1.73;;;21.20;71.70;;;;;;10336398;28;20121;-53
2021/08/23 21:46:52;;;;;;;2.30;1.80;;;21.20;71.70;;;;;;10337659;28;20113;-52
2021/08/23 21:51:52;;;;;;;2.10;1.55;;;21.20;71.70;;;;;;10337519;28;20124;-53
2021/08/23 21:56:53;;;;;;;1.67;1.40;;;21.20;71.70;;;;;;10337664;28;20113;-54
2021/08/23 22:01:56;;;;;;;3.30;1.70;;;21.20;71.70;;;;;;10335956;28;20108;-52
2021/08/23 22:06:58;;;;;;;1.77;1.35;;;21.20;71.70;;;;;;10336861;28;20340;-53
2021/08/23 22:11:59;;;;;;;2.63;2.10;;;21.20;71.60;;;;;;10336808;28;20566;-54
2021/08/23 22:17:00;;;;;;;2.65;1.90;;;21.20;71.50;;;;;;10338116;28;20027;-55
2021/08/23 22:22:03;;;;;;;2.50;1.70;;;21.20;71.60;;;;;;10336434;28;20026;-54
2021/08/23 22:27:04;;;;;;;5.72;1.92;;;21.20;71.50;;;;;;10336183;28;20054;-54
2021/08/23 22:32:05;;;;;;;1.58;1.20;;;21.20;71.40;;;;;;10335811;28;20066;-51
2021/08/23 22:37:05;;;;;;;2.20;1.60;;;21.20;71.50;;;;;;10335748;28;20121;-53
2021/08/23 22:42:07;;;;;;;2.40;1.65;;;21.10;71.40;;;;;;10334656;28;20064;-54
2021/08/23 22:47:10;;;;;;;2.65;1.77;;;21.10;71.40;;;;;;10335267;28;20057;-54
2021/08/23 22:52:11;;;;;;;1.88;1.42;;;21.10;71.40;;;;;;10335589;28;20049;-54
2021/08/23 22:57:12;;;;;;;1.90;1.50;;;21.10;71.30;;;;;;10334849;28;20062;-49
2021/08/23 23:02:13;;;;;;;2.25;1.60;;;21.10;71.20;;;;;;10347043;28;20041;-52
2021/08/23 23:07:14;;;;;;;3.08;1.80;;;21.10;71.20;;;;;;10334576;28;20411;-51
2021/08/23 23:12:14;;;;;;;3.25;1.75;;;21.10;71.20;;;;;;10334384;28;20040;-51
2021/08/23 23:17:15;;;;;;;3.67;1.73;;;21.10;71.20;;;;;;10336139;28;20037;-52
2021/08/23 23:22:16;;;;;;;2.58;1.67;;;21.10;71.20;;;;;;10334542;28;20080;-51
2021/08/23 23:27:17;;;;;;;2.78;1.80;;;21.10;71.10;;;;;;10333826;28;20068;-51
2021/08/23 23:32:17;;;;;;;2.88;1.67;;;21.10;71.20;;;;;;10332549;28;20486;-51
2021/08/23 23:37:18;;;;;;;2.42;1.67;;;21.10;71.10;;;;;;10333484;28;20114;-51
2021/08/23 23:42:19;;;;;;;2.17;1.70;;;21.10;71.00;;;;;;10333103;28;20125;-50
2021/08/23 23:47:19;;;;;;;2.33;1.60;;;21.10;71.00;;;;;;10333099;28;20038;-49
2021/08/23 23:52:20;;;;;;;4.07;2.30;;;21.10;71.00;;;;;;10332793;28;20030;-51
2021/08/23 23:57:21;;;;;;;2.60;1.55;;;21.10;71.00;;;;;;10331429;28;20084;-51
